createdAt,value
2023-02-03T00:01:52.279Z,3.40
2023-02-03T00:04:19.097Z,3.40
2023-02-03T00:06:46.168Z,3.43
2023-02-03T00:09:13.207Z,3.47
2023-02-03T00:11:40.172Z,3.50
2023-02-03T00:14:08.075Z,3.57
2023-02-03T00:16:36.017Z,3.56
2023-02-03T00:19:03.381Z,3.55
2023-02-03T00:21:30.249Z,3.56
2023-02-03T00:23:57.054Z,3.59
2023-02-03T00:26:25.986Z,3.64
2023-02-03T00:28:52.826Z,3.71
2023-02-03T00:31:22.430Z,3.74
2023-02-03T00:33:57.554Z,3.72
2023-02-03T00:36:25.849Z,3.72
2023-02-03T00:38:53.035Z,3.75
2023-02-03T00:41:21.777Z,3.76
2023-02-03T00:43:49.355Z,3.73
2023-02-03T00:46:16.365Z,3.68
2023-02-03T00:48:43.177Z,3.55
2023-02-03T00:51:10.005Z,3.39
2023-02-03T00:53:36.806Z,3.30
2023-02-03T00:56:03.819Z,3.21
2023-02-03T00:58:30.671Z,3.19
2023-02-03T01:00:57.475Z,3.17
2023-02-03T01:03:25.429Z,3.15
2023-02-03T01:05:52.501Z,3.09
2023-02-03T01:08:20.041Z,3.02
2023-02-03T01:10:46.909Z,2.99
2023-02-03T01:13:13.644Z,3.03
2023-02-03T01:15:48.353Z,3.14
2023-02-03T01:18:15.479Z,3.25
2023-02-03T01:20:44.342Z,3.29
2023-02-03T01:23:11.060Z,3.35
2023-02-03T01:25:37.891Z,3.32
2023-02-03T01:28:06.136Z,3.28
2023-02-03T01:30:34.442Z,3.27
2023-02-03T01:33:01.337Z,3.30
2023-02-03T01:35:28.053Z,3.38
2023-02-03T01:37:54.859Z,3.46
2023-02-03T01:40:21.616Z,3.50
2023-02-03T01:42:48.376Z,3.46
2023-02-03T01:45:15.173Z,3.49
2023-02-03T01:47:57.520Z,3.50
2023-02-03T01:50:31.913Z,3.55
2023-02-03T01:53:04.346Z,3.60
2023-02-03T01:55:36.015Z,3.64
2023-02-03T01:58:20.862Z,3.68
2023-02-03T02:00:50.017Z,3.65
2023-02-03T02:03:20.979Z,3.59
2023-02-03T02:05:56.637Z,3.54
2023-02-03T02:08:24.670Z,3.53
2023-02-03T02:10:51.705Z,3.53
2023-02-03T02:13:19.904Z,3.48
2023-02-03T02:16:28.900Z,3.49
2023-02-03T02:19:16.834Z,3.49
2023-02-03T02:22:06.600Z,3.52
2023-02-03T02:25:02.682Z,3.56
2023-02-03T02:27:32.287Z,3.57
2023-02-03T02:30:18.092Z,3.60
2023-02-03T02:33:11.112Z,3.62
2023-02-03T02:35:47.567Z,3.62
2023-02-03T02:38:18.653Z,3.63
2023-02-03T02:41:04.931Z,3.63
2023-02-03T02:43:37.736Z,3.60
2023-02-03T02:46:12.596Z,3.57
2023-02-03T02:48:53.523Z,3.46
2023-02-03T02:51:22.778Z,3.44
2023-02-03T02:53:59.437Z,3.38
2023-02-03T02:56:28.780Z,3.33
2023-02-03T02:58:58.160Z,3.30
2023-02-03T03:01:25.468Z,3.27
2023-02-03T03:03:52.883Z,3.24
2023-02-03T03:06:29.173Z,3.24
2023-02-03T03:09:12.870Z,3.24
2023-02-03T03:11:47.338Z,3.12
2023-02-03T03:14:17.750Z,3.14
2023-02-03T03:16:51.759Z,3.17
2023-02-03T03:19:23.099Z,3.24
2023-02-03T03:21:56.040Z,3.24
2023-02-03T03:24:31.220Z,3.32
2023-02-03T03:27:07.026Z,3.38
2023-02-03T03:29:42.235Z,3.43
2023-02-03T03:32:09.798Z,3.46
2023-02-03T03:34:36.826Z,3.52
2023-02-03T03:37:17.492Z,3.54
2023-02-03T03:40:03.084Z,3.57
2023-02-03T03:42:39.268Z,3.56
2023-02-03T03:45:14.338Z,3.55
2023-02-03T03:47:47.428Z,3.56
2023-02-03T03:50:20.290Z,3.54
2023-02-03T03:52:49.889Z,3.56
2023-02-03T03:55:19.656Z,3.57
2023-02-03T03:57:56.935Z,3.57
2023-02-03T04:00:28.000Z,3.59
2023-02-03T04:02:58.164Z,3.55
2023-02-03T04:05:26.920Z,3.59
2023-02-03T04:07:53.798Z,3.60
2023-02-03T04:10:41.149Z,3.61
2023-02-03T04:13:09.475Z,3.64
2023-02-03T04:15:36.627Z,3.68
2023-02-03T04:18:03.802Z,3.70
2023-02-03T04:20:32.543Z,3.74
2023-02-03T04:22:59.875Z,3.71
2023-02-03T04:25:26.831Z,3.68
2023-02-03T04:27:54.566Z,3.68
2023-02-03T04:30:21.663Z,3.70
2023-02-03T04:32:48.539Z,3.72
2023-02-03T04:35:15.740Z,3.72
2023-02-03T04:37:42.581Z,3.75
2023-02-03T04:40:10.664Z,3.77
2023-02-03T04:42:38.970Z,3.83
2023-02-03T04:45:07.879Z,3.85
2023-02-03T04:47:34.994Z,3.88
2023-02-03T04:50:02.318Z,3.87
2023-02-03T04:52:29.161Z,3.87
2023-02-03T04:54:55.931Z,3.87
2023-02-03T04:57:22.777Z,3.84
2023-02-03T04:59:49.467Z,3.82
2023-02-03T05:02:16.264Z,3.77
2023-02-03T05:04:43.024Z,3.74
2023-02-03T05:07:10.160Z,3.76
2023-02-03T05:09:36.907Z,3.69
2023-02-03T05:12:03.929Z,3.59
2023-02-03T05:14:30.690Z,3.62
2023-02-03T05:16:57.438Z,3.65
2023-02-03T05:19:24.242Z,3.65
2023-02-03T05:21:51.419Z,3.59
2023-02-03T05:24:18.179Z,3.63
2023-02-03T05:26:45.048Z,3.64
2023-02-03T05:29:11.952Z,3.65
2023-02-03T05:31:38.802Z,3.68
2023-02-03T05:34:05.694Z,3.70
2023-02-03T05:36:32.576Z,3.85
2023-02-03T05:38:59.321Z,4.03
2023-02-03T05:41:44.647Z,4.21
2023-02-03T05:44:11.442Z,4.41
2023-02-03T05:46:38.247Z,4.56
2023-02-03T05:49:05.106Z,4.67
2023-02-03T05:51:31.807Z,4.79
2023-02-03T05:53:58.542Z,4.92
2023-02-03T05:56:25.415Z,5.05
2023-02-03T05:58:53.409Z,5.15
2023-02-03T06:01:20.460Z,5.25
2023-02-03T06:03:48.130Z,5.30
2023-02-03T06:06:16.362Z,5.21
2023-02-03T06:08:43.695Z,5.12
2023-02-03T06:11:11.531Z,4.98
2023-02-03T06:13:38.661Z,4.84
2023-02-03T06:16:05.737Z,4.76
2023-02-03T06:18:32.533Z,4.65
2023-02-03T06:20:59.259Z,4.54
2023-02-03T06:23:26.236Z,4.45
2023-02-03T06:25:53.070Z,4.41
2023-02-03T06:28:20.201Z,4.38
2023-02-03T06:30:51.253Z,4.36
2023-02-03T06:33:18.241Z,4.36
2023-02-03T06:35:45.404Z,4.35
2023-02-03T06:38:13.159Z,4.38
2023-02-03T06:40:39.945Z,4.37
2023-02-03T06:43:06.796Z,4.47
2023-02-03T06:45:34.602Z,4.53
2023-02-03T06:48:01.477Z,4.63
2023-02-03T06:50:28.554Z,4.74
2023-02-03T06:52:55.664Z,4.79
2023-02-03T06:55:22.466Z,4.86
2023-02-03T06:57:49.577Z,4.89
2023-02-03T07:00:19.276Z,4.94
2023-02-03T07:02:46.921Z,5.02
2023-02-03T07:05:13.909Z,5.11
2023-02-03T07:07:40.705Z,5.21
2023-02-03T07:10:07.923Z,5.32
2023-02-03T07:12:36.654Z,5.41
2023-02-03T07:15:06.820Z,5.51
2023-02-03T07:17:33.839Z,5.57
2023-02-03T07:20:00.886Z,5.64
2023-02-03T07:22:27.774Z,5.55
2023-02-03T07:24:54.497Z,5.66
2023-02-03T07:27:21.270Z,5.69
2023-02-03T07:29:48.113Z,5.78
2023-02-03T07:32:15.157Z,5.81
2023-02-03T07:34:41.996Z,5.85
2023-02-03T07:37:08.793Z,5.95
2023-02-03T07:39:35.672Z,5.98
2023-02-03T07:42:02.429Z,6.06
2023-02-03T07:44:30.026Z,6.11
2023-02-03T07:46:56.965Z,6.14
2023-02-03T07:49:23.815Z,6.20
2023-02-03T07:51:50.513Z,6.27
2023-02-03T07:54:17.306Z,6.37
2023-02-03T07:56:44.127Z,6.41
2023-02-03T07:59:10.863Z,6.43
2023-02-03T08:01:37.824Z,6.51
2023-02-03T08:04:05.767Z,6.57
2023-02-03T08:06:32.977Z,6.67
2023-02-03T08:08:59.906Z,6.83
2023-02-03T08:11:26.837Z,6.97
2023-02-03T08:13:53.642Z,7.19
2023-02-03T08:16:20.577Z,7.39
2023-02-03T08:18:47.371Z,7.55
2023-02-03T08:21:14.258Z,7.58
2023-02-03T08:23:41.066Z,7.70
2023-02-03T08:26:07.923Z,7.86
2023-02-03T08:28:34.734Z,8.00
2023-02-03T08:31:01.569Z,8.07
2023-02-03T08:33:29.198Z,8.12
2023-02-03T08:35:57.025Z,8.20
2023-02-03T08:38:23.798Z,8.38
2023-02-03T08:40:50.790Z,8.44
2023-02-03T08:43:17.716Z,8.58
2023-02-03T08:45:44.652Z,8.77
2023-02-03T08:48:11.875Z,8.81
2023-02-03T08:50:41.929Z,8.88
2023-02-03T08:53:09.125Z,8.92
2023-02-03T08:55:39.383Z,9.02
2023-02-03T08:58:06.291Z,9.03
2023-02-03T09:00:33.051Z,8.83
2023-02-03T09:02:59.890Z,8.97
2023-02-03T09:05:26.605Z,8.93
2023-02-03T09:07:53.402Z,9.03
2023-02-03T09:10:20.371Z,9.01
2023-02-03T09:12:47.108Z,8.90
2023-02-03T09:15:13.915Z,8.68
2023-02-03T09:17:40.737Z,8.50
2023-02-03T09:20:09.058Z,8.42
2023-02-03T09:22:35.832Z,8.34
2023-02-03T09:25:02.838Z,8.21
2023-02-03T09:27:29.575Z,8.13
2023-02-03T09:29:58.510Z,7.86
2023-02-03T09:32:25.281Z,7.82
2023-02-03T09:34:52.068Z,7.74
2023-02-03T09:37:18.886Z,7.57
2023-02-03T09:39:45.667Z,7.64
2023-02-03T09:42:28.775Z,7.70
2023-02-03T09:44:55.631Z,7.64
2023-02-03T09:47:27.099Z,7.70
2023-02-03T09:49:56.831Z,7.64
2023-02-03T09:52:33.267Z,7.44
2023-02-03T09:55:14.866Z,7.35
2023-02-03T09:57:51.576Z,7.33
2023-02-03T10:00:23.386Z,7.29
2023-02-03T10:03:06.815Z,7.33
2023-02-03T10:05:36.686Z,7.33
2023-02-03T10:08:19.152Z,7.31
2023-02-03T10:11:13.262Z,7.28
2023-02-03T10:14:12.527Z,7.23
2023-02-03T10:17:01.450Z,7.29
2023-02-03T10:19:55.237Z,7.31
2023-02-03T10:22:28.498Z,7.38
2023-02-03T10:25:00.912Z,7.39
2023-02-03T10:27:29.224Z,7.37
2023-02-03T10:30:22.655Z,7.46
2023-02-03T10:32:54.242Z,7.53
2023-02-03T10:35:27.520Z,7.49
2023-02-03T10:37:58.518Z,7.64
2023-02-03T10:40:27.283Z,7.67
2023-02-03T10:43:13.292Z,7.77
2023-02-03T10:45:40.345Z,7.78
2023-02-03T10:48:15.680Z,7.85
2023-02-03T10:50:49.015Z,7.92
2023-02-03T10:53:18.795Z,7.98
2023-02-03T10:56:06.172Z,8.00
2023-02-03T10:58:34.321Z,8.07
2023-02-03T11:01:15.813Z,8.16
2023-02-03T11:04:03.233Z,8.29
2023-02-03T11:06:31.572Z,8.37
2023-02-03T11:08:58.455Z,8.42
2023-02-03T11:11:28.026Z,8.46
2023-02-03T11:14:16.616Z,8.51
2023-02-03T11:16:44.586Z,8.59
2023-02-03T11:19:21.269Z,8.66
2023-02-03T11:21:57.999Z,8.75
2023-02-03T11:24:26.741Z,8.81
2023-02-03T11:27:16.802Z,8.90
2023-02-03T11:29:46.586Z,8.95
2023-02-03T11:32:25.119Z,9.03
2023-02-03T11:35:04.447Z,9.16
2023-02-03T11:37:42.459Z,9.21
2023-02-03T11:40:10.980Z,9.27
2023-02-03T11:42:57.784Z,9.41
2023-02-03T11:45:25.881Z,9.54
2023-02-03T11:48:21.754Z,9.64
2023-02-03T11:51:11.258Z,9.94
2023-02-03T11:54:06.517Z,10.38
2023-02-03T11:57:02.009Z,10.78
2023-02-03T12:00:03.847Z,11.34
2023-02-03T12:03:12.049Z,11.79
2023-02-03T12:05:48.591Z,12.20
2023-02-03T12:08:35.871Z,12.46
2023-02-03T12:11:05.602Z,12.73
2023-02-03T12:13:59.965Z,12.92
2023-02-03T12:16:32.608Z,13.08
2023-02-03T12:19:22.695Z,13.20
2023-02-03T12:22:05.754Z,13.33
2023-02-03T12:24:51.462Z,13.46
2023-02-03T12:27:36.574Z,13.40
2023-02-03T12:30:24.573Z,13.34
2023-02-03T12:32:59.565Z,13.36
2023-02-03T12:35:49.701Z,13.21
2023-02-03T12:38:27.265Z,12.99
2023-02-03T12:41:04.667Z,12.70
2023-02-03T12:43:42.710Z,12.48
2023-02-03T12:46:19.925Z,12.37
2023-02-03T12:48:55.124Z,12.35
2023-02-03T12:51:30.132Z,12.37
2023-02-03T12:54:04.001Z,12.41
2023-02-03T12:56:40.213Z,12.32
2023-02-03T12:59:16.199Z,12.43
2023-02-03T13:01:56.837Z,12.42
2023-02-03T13:04:33.095Z,12.42
2023-02-03T13:07:24.175Z,12.47
2023-02-03T13:10:03.755Z,12.57
2023-02-03T13:12:42.812Z,12.65
2023-02-03T13:15:18.998Z,12.70
2023-02-03T13:17:59.567Z,12.72
2023-02-03T13:20:39.244Z,12.81
2023-02-03T13:23:12.488Z,12.77
2023-02-03T13:25:54.356Z,12.81
2023-02-03T13:28:48.364Z,12.80
2023-02-03T13:31:24.344Z,12.77
2023-02-03T13:34:03.646Z,12.82
2023-02-03T13:36:40.063Z,12.87
2023-02-03T13:39:51.052Z,12.87
2023-02-03T13:42:21.545Z,12.99
2023-02-03T13:44:52.988Z,12.96
2023-02-03T13:47:27.814Z,13.04
2023-02-03T13:50:10.068Z,13.04
2023-02-03T13:52:45.733Z,13.07
2023-02-03T13:55:35.787Z,13.07
2023-02-03T13:58:04.591Z,13.02
2023-02-03T14:00:43.708Z,12.95
2023-02-03T14:03:25.983Z,12.94
2023-02-03T14:05:57.110Z,12.73
2023-02-03T14:08:29.809Z,12.64
2023-02-03T14:11:33.521Z,12.43
2023-02-03T14:14:09.646Z,12.32
2023-02-03T14:16:44.679Z,12.14
2023-02-03T14:19:34.163Z,12.11
2023-02-03T14:22:04.946Z,12.02
2023-02-03T14:24:39.210Z,11.97
2023-02-03T14:27:23.814Z,11.89
2023-02-03T14:30:07.896Z,11.76
2023-02-03T14:33:02.974Z,11.59
2023-02-03T14:35:40.587Z,11.55
2023-02-03T14:38:11.550Z,11.52
2023-02-03T14:40:53.415Z,11.39
2023-02-03T14:43:34.894Z,11.31
2023-02-03T14:46:38.837Z,11.24
2023-02-03T14:49:52.775Z,11.09
2023-02-03T14:52:35.953Z,10.88
2023-02-03T14:55:08.548Z,10.75
2023-02-03T14:57:49.168Z,10.62
2023-02-03T15:00:19.105Z,10.54
2023-02-03T15:03:10.975Z,10.44
2023-02-03T15:05:46.452Z,10.22
2023-02-03T15:08:42.205Z,9.93
2023-02-03T15:11:33.564Z,9.67
2023-02-03T15:14:27.127Z,9.35
2023-02-03T15:16:56.052Z,9.24
2023-02-03T15:19:29.235Z,9.09
2023-02-03T15:21:56.400Z,8.97
2023-02-03T15:24:24.301Z,8.79
2023-02-03T15:26:56.505Z,8.72
2023-02-03T15:29:29.063Z,8.62
2023-02-03T15:32:02.683Z,8.55
2023-02-03T15:34:50.556Z,8.48
2023-02-03T15:37:28.218Z,8.43
2023-02-03T15:40:00.575Z,8.38
2023-02-03T15:42:39.642Z,8.34
2023-02-03T15:45:45.845Z,8.34
2023-02-03T15:48:43.733Z,8.33
2023-02-03T15:51:21.153Z,8.32
2023-02-03T15:53:54.193Z,8.32
2023-02-03T15:56:35.733Z,8.29
2023-02-03T15:59:02.758Z,8.18
2023-02-03T16:01:30.478Z,8.08
2023-02-03T16:03:59.089Z,7.97
2023-02-03T16:06:35.917Z,7.86
2023-02-03T16:09:03.735Z,7.77
2023-02-03T16:11:39.062Z,7.69
2023-02-03T16:14:08.286Z,7.63
2023-02-03T16:16:47.188Z,7.59
2023-02-03T16:19:22.741Z,7.49
2023-02-03T16:21:52.856Z,7.37
2023-02-03T16:24:41.024Z,7.23
2023-02-03T16:27:25.803Z,7.10
2023-02-03T16:30:39.103Z,7.00
2023-02-03T16:33:27.240Z,6.93
2023-02-03T16:36:14.036Z,6.86
2023-02-03T16:39:06.526Z,6.84
2023-02-03T16:41:52.214Z,6.84
2023-02-03T16:44:37.980Z,6.80
2023-02-03T16:47:44.434Z,6.76
2023-02-03T16:50:38.768Z,6.80
2023-02-03T16:53:11.318Z,6.80
2023-02-03T16:55:38.109Z,6.80
2023-02-03T16:58:04.903Z,6.79
2023-02-03T17:00:31.753Z,6.76
2023-02-03T17:02:58.857Z,6.75
2023-02-03T17:05:25.602Z,6.72
2023-02-03T17:07:52.385Z,6.69
2023-02-03T17:10:19.262Z,6.67
2023-02-03T17:12:46.185Z,6.65
2023-02-03T17:15:13.133Z,6.65
2023-02-03T17:17:39.942Z,6.65
2023-02-03T17:20:06.995Z,6.66
2023-02-03T17:22:34.045Z,6.66
2023-02-03T17:25:00.964Z,6.64
2023-02-03T17:27:28.128Z,6.64
2023-02-03T17:29:55.498Z,6.54
2023-02-03T17:32:22.369Z,6.50
2023-02-03T17:34:49.085Z,6.49
2023-02-03T17:37:15.942Z,6.49
2023-02-03T17:53:25.390Z,6.26
2023-02-03T17:55:52.160Z,6.22
2023-02-03T17:58:18.924Z,6.22
2023-02-03T18:00:45.781Z,6.23
2023-02-03T18:03:12.738Z,6.26
2023-02-03T18:05:39.860Z,6.27
2023-02-03T18:08:16.096Z,6.28
2023-02-03T18:10:43.573Z,6.31
2023-02-03T18:13:10.460Z,6.37
2023-02-03T18:15:38.529Z,6.36
2023-02-03T18:18:05.953Z,6.34
2023-02-03T18:20:32.820Z,6.37
2023-02-03T18:22:59.553Z,6.39
2023-02-03T18:25:26.281Z,6.40
2023-02-03T18:27:53.100Z,6.41
2023-02-03T18:30:21.687Z,6.43
2023-02-03T18:32:52.769Z,6.45
2023-02-03T18:35:19.750Z,6.44
2023-02-03T18:37:46.487Z,6.46
2023-02-03T18:40:13.470Z,6.45
2023-02-03T18:42:40.320Z,6.45
2023-02-03T18:45:07.519Z,6.49
2023-02-03T18:47:35.330Z,6.51
2023-02-03T18:50:02.156Z,6.54
2023-02-03T18:52:28.945Z,6.57
2023-02-03T18:54:55.753Z,6.56
2023-02-03T18:57:23.001Z,6.58
2023-02-03T18:59:49.813Z,6.56
2023-02-03T19:02:16.807Z,6.52
2023-02-03T19:04:43.768Z,6.51
2023-02-03T19:07:12.363Z,6.46
2023-02-03T19:09:40.900Z,6.48
2023-02-03T19:12:08.616Z,6.43
2023-02-03T19:14:36.054Z,6.49
2023-02-03T19:17:03.817Z,6.50
2023-02-03T19:19:30.800Z,6.44
2023-02-03T19:21:58.593Z,6.41
2023-02-03T19:24:26.812Z,6.44
2023-02-03T19:26:54.349Z,6.48
2023-02-03T19:29:21.115Z,6.45
2023-02-03T19:31:47.889Z,6.49
2023-02-03T19:34:18.384Z,6.49
2023-02-03T19:36:47.143Z,6.51
2023-02-03T19:39:14.543Z,6.49
2023-02-03T19:41:41.447Z,6.50
2023-02-03T19:44:08.283Z,6.51
2023-02-03T19:46:41.658Z,6.51
2023-02-03T19:49:15.161Z,6.54
2023-02-03T19:51:45.444Z,6.55
2023-02-03T19:54:14.457Z,6.57
2023-02-03T19:56:42.761Z,6.58
2023-02-03T19:59:10.512Z,6.60
2023-02-03T20:01:37.424Z,6.60
2023-02-03T20:04:04.585Z,6.58
2023-02-03T20:06:34.385Z,6.56
2023-02-03T20:09:01.461Z,6.50
2023-02-03T20:11:28.597Z,6.52
2023-02-03T20:13:55.560Z,6.46
2023-02-03T20:16:22.345Z,6.44
2023-02-03T20:18:49.445Z,6.45
2023-02-03T20:21:16.346Z,6.45
2023-02-03T20:23:43.126Z,6.50
2023-02-03T20:26:09.938Z,6.54
2023-02-03T20:28:36.668Z,6.57
2023-02-03T20:31:04.390Z,6.61
2023-02-03T20:33:31.403Z,6.65
2023-02-03T20:35:58.466Z,6.69
2023-02-03T20:38:25.415Z,6.72
2023-02-03T20:40:52.174Z,6.76
2023-02-03T20:43:20.298Z,6.76
2023-02-03T20:45:49.559Z,6.78
2023-02-03T20:48:18.137Z,6.73
2023-02-03T20:50:47.519Z,6.70
2023-02-03T20:53:23.146Z,6.70
2023-02-03T20:55:51.517Z,6.66
2023-02-03T20:58:23.364Z,6.66
2023-02-03T21:00:50.955Z,6.66
2023-02-03T21:03:38.236Z,6.61
2023-02-03T21:06:20.666Z,6.64
2023-02-03T21:08:48.332Z,6.64
2023-02-03T21:11:27.387Z,6.61
2023-02-03T21:13:54.232Z,6.61
2023-02-03T21:16:27.484Z,6.58
2023-02-03T21:18:57.000Z,6.54
2023-02-03T21:21:46.762Z,6.49
2023-02-03T21:24:28.557Z,6.43
2023-02-03T21:26:56.390Z,6.38
2023-02-03T21:29:29.579Z,6.25
2023-02-03T21:31:56.471Z,6.21
2023-02-03T21:34:33.656Z,6.12
2023-02-03T21:37:12.400Z,6.10
2023-02-03T21:39:39.136Z,6.08
2023-02-03T21:42:43.340Z,6.07
2023-02-03T21:45:16.810Z,6.04
2023-02-03T21:47:44.966Z,6.00
2023-02-03T21:50:40.888Z,6.04
2023-02-03T21:53:10.677Z,6.06
2023-02-03T21:55:40.020Z,6.07
2023-02-03T21:58:25.951Z,6.09
2023-02-03T22:00:54.575Z,5.99
2023-02-03T22:03:27.886Z,6.01
2023-02-03T22:06:22.912Z,5.98
2023-02-03T22:08:52.695Z,5.98
2023-02-03T22:11:21.079Z,5.93
2023-02-03T22:13:48.496Z,5.91
2023-02-03T22:16:17.248Z,5.89
2023-02-03T22:18:45.846Z,5.90
2023-02-03T22:21:13.231Z,5.83
2023-02-03T22:23:40.570Z,5.80
2023-02-03T22:26:08.773Z,5.82
2023-02-03T22:28:36.084Z,5.81
2023-02-03T22:31:05.201Z,5.81
2023-02-03T22:33:32.460Z,5.78
2023-02-03T22:35:59.474Z,5.75
2023-02-03T22:38:26.594Z,5.71
2023-02-03T22:40:53.524Z,5.65
2023-02-03T22:43:20.305Z,5.64
2023-02-03T22:45:47.211Z,5.63
2023-02-03T22:48:13.917Z,5.66
2023-02-03T22:50:40.946Z,5.62
2023-02-03T22:53:09.378Z,5.55
2023-02-03T22:55:37.774Z,5.50
2023-02-03T22:58:05.548Z,5.46
2023-02-03T23:00:32.664Z,5.45
2023-02-03T23:02:59.695Z,5.41
2023-02-03T23:05:26.782Z,5.39
2023-02-03T23:07:54.070Z,5.32
2023-02-03T23:10:24.043Z,5.24
2023-02-03T23:12:52.110Z,5.18
2023-02-03T23:15:19.157Z,5.17
2023-02-03T23:17:46.240Z,5.12
2023-02-03T23:20:14.924Z,5.05
2023-02-03T23:22:42.464Z,4.96
2023-02-03T23:25:09.868Z,4.91
2023-02-03T23:27:36.772Z,4.86
2023-02-03T23:30:05.236Z,4.81
2023-02-03T23:32:33.750Z,4.79
2023-02-03T23:35:20.242Z,4.84
2023-02-03T23:37:47.758Z,4.90
2023-02-03T23:40:14.864Z,4.90
2023-02-03T23:42:42.539Z,4.87
2023-02-03T23:45:12.123Z,4.80
2023-02-03T23:47:40.584Z,4.79
2023-02-03T23:50:09.533Z,4.74
2023-02-03T23:52:37.401Z,4.74
2023-02-03T23:55:11.882Z,4.73
2023-02-03T23:57:42.618Z,4.76
